sensor_id;sensor_type;location;lat;lon;timestamp;temperature;humidity
58865;DHT22;45702;52.982;6.658;2023-01-26T00:00:49;0.20;99.90
58865;DHT22;45702;52.982;6.658;2023-01-26T00:03:15;0.20;99.90
58865;DHT22;45702;52.982;6.658;2023-01-26T00:05:41;0.20;99.90
58865;DHT22;45702;52.982;6.658;2023-01-26T00:08:07;0.30;99.90
58865;DHT22;45702;52.982;6.658;2023-01-26T00:10:37;0.20;99.90
58865;DHT22;45702;52.982;6.658;2023-01-26T00:13:03;0.30;99.90
58865;DHT22;45702;52.982;6.658;2023-01-26T00:15:32;0.30;99.90
58865;DHT22;45702;52.982;6.658;2023-01-26T00:17:58;0.30;99.90
58865;DHT22;45702;52.982;6.658;2023-01-26T00:20:24;0.20;99.90
58865;DHT22;45702;52.982;6.658;2023-01-26T00:22:49;0.30;99.90
58865;DHT22;45702;52.982;6.658;2023-01-26T00:25:15;0.20;99.90
58865;DHT22;45702;52.982;6.658;2023-01-26T00:27:41;0.30;99.90
58865;DHT22;45702;52.982;6.658;2023-01-26T00:30:07;0.30;99.90
58865;DHT22;45702;52.982;6.658;2023-01-26T00:32:36;0.30;99.90
58865;DHT22;45702;52.982;6.658;2023-01-26T00:35:03;0.30;99.90
58865;DHT22;45702;52.982;6.658;2023-01-26T00:37:30;0.30;99.90
58865;DHT22;45702;52.982;6.658;2023-01-26T00:39:55;0.30;99.90
58865;DHT22;45702;52.982;6.658;2023-01-26T00:42:21;0.30;99.90
58865;DHT22;45702;52.982;6.658;2023-01-26T00:44:49;0.30;99.90
58865;DHT22;45702;52.982;6.658;2023-01-26T00:47:16;0.30;99.90
58865;DHT22;45702;52.982;6.658;2023-01-26T00:49:42;0.30;99.90
58865;DHT22;45702;52.982;6.658;2023-01-26T00:52:08;0.30;99.90
58865;DHT22;45702;52.982;6.658;2023-01-26T00:54:34;0.30;99.90
58865;DHT22;45702;52.982;6.658;2023-01-26T00:57:00;0.30;99.90
58865;DHT22;45702;52.982;6.658;2023-01-26T00:59:26;0.30;99.90
58865;DHT22;45702;52.982;6.658;2023-01-26T01:01:52;0.30;99.90
58865;DHT22;45702;52.982;6.658;2023-01-26T01:04:18;0.30;99.90
58865;DHT22;45702;52.982;6.658;2023-01-26T01:06:44;0.40;99.90
58865;DHT22;45702;52.982;6.658;2023-01-26T01:09:10;0.40;99.90
58865;DHT22;45702;52.982;6.658;2023-01-26T01:11:36;0.40;99.90
58865;DHT22;45702;52.982;6.658;2023-01-26T01:14:02;0.40;99.90
58865;DHT22;45702;52.982;6.658;2023-01-26T01:16:28;0.40;99.90
58865;DHT22;45702;52.982;6.658;2023-01-26T01:18:54;0.40;99.90
58865;DHT22;45702;52.982;6.658;2023-01-26T01:21:21;0.40;99.90
58865;DHT22;45702;52.982;6.658;2023-01-26T01:23:47;0.40;99.90
58865;DHT22;45702;52.982;6.658;2023-01-26T01:26:14;0.40;99.90
58865;DHT22;45702;52.982;6.658;2023-01-26T01:28:40;0.40;99.90
58865;DHT22;45702;52.982;6.658;2023-01-26T01:31:14;0.40;99.90
58865;DHT22;45702;52.982;6.658;2023-01-26T01:33:40;0.50;99.90
58865;DHT22;45702;52.982;6.658;2023-01-26T01:36:09;0.50;99.90
58865;DHT22;45702;52.982;6.658;2023-01-26T01:38:35;0.50;99.90
58865;DHT22;45702;52.982;6.658;2023-01-26T01:41:01;0.60;99.90
58865;DHT22;45702;52.982;6.658;2023-01-26T01:43:28;0.50;99.90
58865;DHT22;45702;52.982;6.658;2023-01-26T01:45:53;0.50;99.90
58865;DHT22;45702;52.982;6.658;2023-01-26T01:48:24;0.50;99.90
58865;DHT22;45702;52.982;6.658;2023-01-26T01:50:55;0.50;99.90
58865;DHT22;45702;52.982;6.658;2023-01-26T01:53:26;0.50;99.90
58865;DHT22;45702;52.982;6.658;2023-01-26T01:56:00;0.50;99.90
58865;DHT22;45702;52.982;6.658;2023-01-26T01:58:29;0.60;99.90
58865;DHT22;45702;52.982;6.658;2023-01-26T02:00:57;0.50;99.90
58865;DHT22;45702;52.982;6.658;2023-01-26T02:03:24;0.50;99.90
58865;DHT22;45702;52.982;6.658;2023-01-26T02:06:13;0.50;99.90
58865;DHT22;45702;52.982;6.658;2023-01-26T02:08:43;0.60;99.90
58865;DHT22;45702;52.982;6.658;2023-01-26T02:11:15;0.50;99.90
58865;DHT22;45702;52.982;6.658;2023-01-26T02:13:42;0.60;99.90
58865;DHT22;45702;52.982;6.658;2023-01-26T02:16:09;0.50;99.90
58865;DHT22;45702;52.982;6.658;2023-01-26T02:18:35;0.50;99.90
58865;DHT22;45702;52.982;6.658;2023-01-26T02:21:03;0.60;99.90
58865;DHT22;45702;52.982;6.658;2023-01-26T02:23:47;0.50;99.90
58865;DHT22;45702;52.982;6.658;2023-01-26T02:26:28;0.50;99.90
58865;DHT22;45702;52.982;6.658;2023-01-26T02:28:54;0.60;99.90
58865;DHT22;45702;52.982;6.658;2023-01-26T02:31:22;0.60;99.90
58865;DHT22;45702;52.982;6.658;2023-01-26T02:33:48;0.60;99.90
58865;DHT22;45702;52.982;6.658;2023-01-26T02:36:21;0.60;99.90
58865;DHT22;45702;52.982;6.658;2023-01-26T02:39:39;0.60;99.90
58865;DHT22;45702;52.982;6.658;2023-01-26T02:41:41;0.60;99.90
58865;DHT22;45702;52.982;6.658;2023-01-26T02:44:26;0.60;99.90
58865;DHT22;45702;52.982;6.658;2023-01-26T02:46:52;0.60;99.90
58865;DHT22;45702;52.982;6.658;2023-01-26T02:49:18;0.60;99.90
58865;DHT22;45702;52.982;6.658;2023-01-26T02:52:04;0.60;99.90
58865;DHT22;45702;52.982;6.658;2023-01-26T02:54:29;0.70;99.90
58865;DHT22;45702;52.982;6.658;2023-01-26T02:57:14;0.70;99.90
58865;DHT22;45702;52.982;6.658;2023-01-26T02:59:39;0.70;99.90
58865;DHT22;45702;52.982;6.658;2023-01-26T03:02:06;0.70;99.90
58865;DHT22;45702;52.982;6.658;2023-01-26T03:04:32;0.70;99.90
58865;DHT22;45702;52.982;6.658;2023-01-26T03:06:58;0.60;99.90
58865;DHT22;45702;52.982;6.658;2023-01-26T03:09:23;0.70;99.90
58865;DHT22;45702;52.982;6.658;2023-01-26T03:11:49;0.70;99.90
58865;DHT22;45702;52.982;6.658;2023-01-26T03:14:15;0.60;99.90
58865;DHT22;45702;52.982;6.658;2023-01-26T03:16:41;0.70;99.90
58865;DHT22;45702;52.982;6.658;2023-01-26T03:19:10;0.70;99.90
58865;DHT22;45702;52.982;6.658;2023-01-26T03:21:55;0.70;99.90
58865;DHT22;45702;52.982;6.658;2023-01-26T03:24:39;0.70;99.90
58865;DHT22;45702;52.982;6.658;2023-01-26T03:27:23;0.70;99.90
58865;DHT22;45702;52.982;6.658;2023-01-26T03:29:52;0.80;99.90
58865;DHT22;45702;52.982;6.658;2023-01-26T03:32:18;0.80;99.90
58865;DHT22;45702;52.982;6.658;2023-01-26T03:34:44;0.80;99.90
58865;DHT22;45702;52.982;6.658;2023-01-26T03:37:10;0.80;99.90
58865;DHT22;45702;52.982;6.658;2023-01-26T03:39:35;0.80;99.90
58865;DHT22;45702;52.982;6.658;2023-01-26T03:42:19;0.80;99.90
58865;DHT22;45702;52.982;6.658;2023-01-26T03:45:04;0.80;99.90
58865;DHT22;45702;52.982;6.658;2023-01-26T03:47:49;0.80;99.90
58865;DHT22;45702;52.982;6.658;2023-01-26T03:50:33;0.80;99.90
58865;DHT22;45702;52.982;6.658;2023-01-26T03:53:19;0.90;99.90
58865;DHT22;45702;52.982;6.658;2023-01-26T03:56:05;0.90;99.90
58865;DHT22;45702;52.982;6.658;2023-01-26T03:58:47;0.90;99.90
58865;DHT22;45702;52.982;6.658;2023-01-26T04:01:13;0.90;99.90
58865;DHT22;45702;52.982;6.658;2023-01-26T04:03:47;0.90;99.90
58865;DHT22;45702;52.982;6.658;2023-01-26T04:06:33;1.00;99.90
58865;DHT22;45702;52.982;6.658;2023-01-26T04:09:17;0.90;99.90
58865;DHT22;45702;52.982;6.658;2023-01-26T04:11:43;0.90;99.90
58865;DHT22;45702;52.982;6.658;2023-01-26T04:14:13;1.00;99.90
58865;DHT22;45702;52.982;6.658;2023-01-26T04:16:59;1.00;99.90
58865;DHT22;45702;52.982;6.658;2023-01-26T04:19:44;1.00;99.90
58865;DHT22;45702;52.982;6.658;2023-01-26T04:22:28;1.00;99.90
58865;DHT22;45702;52.982;6.658;2023-01-26T04:24:54;0.90;99.90
58865;DHT22;45702;52.982;6.658;2023-01-26T04:27:19;1.00;99.90
58865;DHT22;45702;52.982;6.658;2023-01-26T04:29:45;1.00;99.90
58865;DHT22;45702;52.982;6.658;2023-01-26T04:32:11;1.00;99.90
58865;DHT22;45702;52.982;6.658;2023-01-26T04:34:36;1.00;99.90
58865;DHT22;45702;52.982;6.658;2023-01-26T04:37:02;1.00;99.90
58865;DHT22;45702;52.982;6.658;2023-01-26T04:39:28;1.00;99.90
58865;DHT22;45702;52.982;6.658;2023-01-26T04:41:53;1.00;99.90
58865;DHT22;45702;52.982;6.658;2023-01-26T04:44:19;1.00;99.90
58865;DHT22;45702;52.982;6.658;2023-01-26T04:46:45;1.00;99.90
58865;DHT22;45702;52.982;6.658;2023-01-26T04:49:12;1.00;99.90
58865;DHT22;45702;52.982;6.658;2023-01-26T04:51:38;1.10;99.90
58865;DHT22;45702;52.982;6.658;2023-01-26T04:54:04;1.10;99.90
58865;DHT22;45702;52.982;6.658;2023-01-26T04:56:32;1.10;99.90
58865;DHT22;45702;52.982;6.658;2023-01-26T04:58:59;1.10;99.90
58865;DHT22;45702;52.982;6.658;2023-01-26T05:01:25;1.10;99.90
58865;DHT22;45702;52.982;6.658;2023-01-26T05:03:51;1.10;99.90
58865;DHT22;45702;52.982;6.658;2023-01-26T05:06:17;1.10;99.90
58865;DHT22;45702;52.982;6.658;2023-01-26T05:08:43;1.10;99.90
58865;DHT22;45702;52.982;6.658;2023-01-26T05:11:09;1.10;99.90
58865;DHT22;45702;52.982;6.658;2023-01-26T05:13:35;1.10;99.90
58865;DHT22;45702;52.982;6.658;2023-01-26T05:16:02;1.10;99.90
58865;DHT22;45702;52.982;6.658;2023-01-26T05:18:29;1.10;99.90
58865;DHT22;45702;52.982;6.658;2023-01-26T05:20:55;1.10;99.90
58865;DHT22;45702;52.982;6.658;2023-01-26T05:23:21;1.10;99.90
58865;DHT22;45702;52.982;6.658;2023-01-26T05:25:47;1.10;99.90
58865;DHT22;45702;52.982;6.658;2023-01-26T05:28:12;1.10;99.90
58865;DHT22;45702;52.982;6.658;2023-01-26T05:30:38;1.20;99.90
58865;DHT22;45702;52.982;6.658;2023-01-26T05:33:06;1.20;99.90
58865;DHT22;45702;52.982;6.658;2023-01-26T05:35:33;1.10;99.90
58865;DHT22;45702;52.982;6.658;2023-01-26T05:37:59;1.20;99.90
58865;DHT22;45702;52.982;6.658;2023-01-26T05:40:25;1.10;99.90
58865;DHT22;45702;52.982;6.658;2023-01-26T05:42:51;1.20;99.90
58865;DHT22;45702;52.982;6.658;2023-01-26T05:45:17;1.20;99.90
58865;DHT22;45702;52.982;6.658;2023-01-26T05:47:44;1.20;99.90
58865;DHT22;45702;52.982;6.658;2023-01-26T05:50:11;1.20;99.90
58865;DHT22;45702;52.982;6.658;2023-01-26T05:52:37;1.20;99.90
58865;DHT22;45702;52.982;6.658;2023-01-26T05:55:04;1.20;99.90
58865;DHT22;45702;52.982;6.658;2023-01-26T05:57:30;1.20;99.90
58865;DHT22;45702;52.982;6.658;2023-01-26T05:59:55;1.20;99.90
58865;DHT22;45702;52.982;6.658;2023-01-26T06:02:21;1.20;99.90
58865;DHT22;45702;52.982;6.658;2023-01-26T06:04:47;1.20;99.90
58865;DHT22;45702;52.982;6.658;2023-01-26T06:07:13;1.20;99.90
58865;DHT22;45702;52.982;6.658;2023-01-26T06:09:40;1.20;99.90
58865;DHT22;45702;52.982;6.658;2023-01-26T06:12:17;1.30;99.90
58865;DHT22;45702;52.982;6.658;2023-01-26T06:14:43;1.30;99.90
58865;DHT22;45702;52.982;6.658;2023-01-26T06:17:09;1.20;99.90
58865;DHT22;45702;52.982;6.658;2023-01-26T06:19:35;1.30;99.90
58865;DHT22;45702;52.982;6.658;2023-01-26T06:22:02;1.20;99.90
58865;DHT22;45702;52.982;6.658;2023-01-26T06:24:29;1.30;99.90
58865;DHT22;45702;52.982;6.658;2023-01-26T06:26:55;1.30;99.90
58865;DHT22;45702;52.982;6.658;2023-01-26T06:29:20;1.30;99.90
58865;DHT22;45702;52.982;6.658;2023-01-26T06:31:46;1.30;99.90
58865;DHT22;45702;52.982;6.658;2023-01-26T06:34:12;1.30;99.90
58865;DHT22;45702;52.982;6.658;2023-01-26T06:36:38;1.30;99.90
58865;DHT22;45702;52.982;6.658;2023-01-26T06:39:03;1.30;99.90
58865;DHT22;45702;52.982;6.658;2023-01-26T06:41:29;1.30;99.90
58865;DHT22;45702;52.982;6.658;2023-01-26T06:43:55;1.30;99.90
58865;DHT22;45702;52.982;6.658;2023-01-26T06:46:20;1.30;99.90
58865;DHT22;45702;52.982;6.658;2023-01-26T06:48:46;1.30;99.90
58865;DHT22;45702;52.982;6.658;2023-01-26T06:53:57;1.30;99.90
58865;DHT22;45702;52.982;6.658;2023-01-26T06:56:24;1.40;99.90
58865;DHT22;45702;52.982;6.658;2023-01-26T06:58:52;1.40;99.90
58865;DHT22;45702;52.982;6.658;2023-01-26T07:01:19;1.40;99.90
58865;DHT22;45702;52.982;6.658;2023-01-26T07:03:49;1.40;99.90
58865;DHT22;45702;52.982;6.658;2023-01-26T07:06:15;1.40;99.90
58865;DHT22;45702;52.982;6.658;2023-01-26T07:08:41;1.40;99.90
58865;DHT22;45702;52.982;6.658;2023-01-26T07:11:07;1.40;99.90
58865;DHT22;45702;52.982;6.658;2023-01-26T07:13:33;1.30;99.90
58865;DHT22;45702;52.982;6.658;2023-01-26T07:16:04;1.40;99.90
58865;DHT22;45702;52.982;6.658;2023-01-26T07:18:30;1.30;99.90
58865;DHT22;45702;52.982;6.658;2023-01-26T07:21:00;1.40;99.90
58865;DHT22;45702;52.982;6.658;2023-01-26T07:23:26;1.40;99.90
58865;DHT22;45702;52.982;6.658;2023-01-26T07:25:52;1.40;99.90
58865;DHT22;45702;52.982;6.658;2023-01-26T07:28:18;1.30;99.90
58865;DHT22;45702;52.982;6.658;2023-01-26T07:30:43;1.30;99.90
58865;DHT22;45702;52.982;6.658;2023-01-26T07:33:09;1.30;99.90
58865;DHT22;45702;52.982;6.658;2023-01-26T07:35:35;1.30;99.90
58865;DHT22;45702;52.982;6.658;2023-01-26T07:38:03;1.30;99.90
58865;DHT22;45702;52.982;6.658;2023-01-26T07:40:29;1.30;99.90
58865;DHT22;45702;52.982;6.658;2023-01-26T07:42:55;1.30;99.90
58865;DHT22;45702;52.982;6.658;2023-01-26T07:45:21;1.30;99.90
58865;DHT22;45702;52.982;6.658;2023-01-26T07:47:46;1.30;99.90
58865;DHT22;45702;52.982;6.658;2023-01-26T07:50:12;1.30;99.90
58865;DHT22;45702;52.982;6.658;2023-01-26T07:52:39;1.30;99.90
58865;DHT22;45702;52.982;6.658;2023-01-26T07:55:05;1.30;99.90
58865;DHT22;45702;52.982;6.658;2023-01-26T07:57:31;1.30;99.90
58865;DHT22;45702;52.982;6.658;2023-01-26T07:59:58;1.30;99.90
58865;DHT22;45702;52.982;6.658;2023-01-26T08:02:24;1.30;99.90
58865;DHT22;45702;52.982;6.658;2023-01-26T08:04:50;1.30;99.90
58865;DHT22;45702;52.982;6.658;2023-01-26T08:07:15;1.30;99.90
58865;DHT22;45702;52.982;6.658;2023-01-26T08:09:41;1.20;99.90
58865;DHT22;45702;52.982;6.658;2023-01-26T08:12:07;1.30;99.90
58865;DHT22;45702;52.982;6.658;2023-01-26T08:14:32;1.20;99.90
58865;DHT22;45702;52.982;6.658;2023-01-26T08:16:58;1.20;99.90
58865;DHT22;45702;52.982;6.658;2023-01-26T08:19:25;1.20;99.90
58865;DHT22;45702;52.982;6.658;2023-01-26T08:21:51;1.20;99.90
58865;DHT22;45702;52.982;6.658;2023-01-26T08:24:17;1.10;99.90
58865;DHT22;45702;52.982;6.658;2023-01-26T08:26:43;1.10;99.90
58865;DHT22;45702;52.982;6.658;2023-01-26T08:29:08;1.10;99.90
58865;DHT22;45702;52.982;6.658;2023-01-26T08:31:34;1.10;99.90
58865;DHT22;45702;52.982;6.658;2023-01-26T08:34:00;1.10;99.90
58865;DHT22;45702;52.982;6.658;2023-01-26T08:36:26;1.10;99.90
58865;DHT22;45702;52.982;6.658;2023-01-26T08:38:53;1.10;99.90
58865;DHT22;45702;52.982;6.658;2023-01-26T08:41:18;1.10;99.90
58865;DHT22;45702;52.982;6.658;2023-01-26T08:43:44;1.10;99.90
58865;DHT22;45702;52.982;6.658;2023-01-26T08:46:10;1.10;99.90
58865;DHT22;45702;52.982;6.658;2023-01-26T08:48:36;1.10;99.90
58865;DHT22;45702;52.982;6.658;2023-01-26T08:51:03;1.10;99.90
58865;DHT22;45702;52.982;6.658;2023-01-26T08:53:30;1.20;99.90
58865;DHT22;45702;52.982;6.658;2023-01-26T08:55:59;1.20;99.90
58865;DHT22;45702;52.982;6.658;2023-01-26T08:58:25;1.20;99.90
58865;DHT22;45702;52.982;6.658;2023-01-26T09:00:50;1.30;99.90
58865;DHT22;45702;52.982;6.658;2023-01-26T09:03:16;1.30;99.90
58865;DHT22;45702;52.982;6.658;2023-01-26T09:05:42;1.40;99.90
58865;DHT22;45702;52.982;6.658;2023-01-26T09:08:08;1.40;99.90
58865;DHT22;45702;52.982;6.658;2023-01-26T09:10:36;1.50;99.90
58865;DHT22;45702;52.982;6.658;2023-01-26T09:13:02;1.50;99.90
58865;DHT22;45702;52.982;6.658;2023-01-26T09:15:27;1.50;99.90
58865;DHT22;45702;52.982;6.658;2023-01-26T09:17:53;1.70;99.90
58865;DHT22;45702;52.982;6.658;2023-01-26T09:20:19;1.80;99.90
58865;DHT22;45702;52.982;6.658;2023-01-26T09:22:45;1.80;99.90
58865;DHT22;45702;52.982;6.658;2023-01-26T09:25:11;1.80;99.90
58865;DHT22;45702;52.982;6.658;2023-01-26T09:27:37;1.90;99.90
58865;DHT22;45702;52.982;6.658;2023-01-26T09:30:03;2.00;99.90
58865;DHT22;45702;52.982;6.658;2023-01-26T09:32:29;2.10;99.90
58865;DHT22;45702;52.982;6.658;2023-01-26T09:34:55;2.20;99.90
58865;DHT22;45702;52.982;6.658;2023-01-26T09:37:21;2.30;99.90
58865;DHT22;45702;52.982;6.658;2023-01-26T09:39:47;2.50;99.90
58865;DHT22;45702;52.982;6.658;2023-01-26T09:51:35;3.10;99.90
58865;DHT22;45702;52.982;6.658;2023-01-26T09:56:53;3.40;99.90
58865;DHT22;45702;52.982;6.658;2023-01-26T10:04:43;4.10;99.90
58865;DHT22;45702;52.982;6.658;2023-01-26T10:07:12;4.50;99.90
58865;DHT22;45702;52.982;6.658;2023-01-26T10:09:40;5.00;99.90
58865;DHT22;45702;52.982;6.658;2023-01-26T10:12:18;5.50;99.90
58865;DHT22;45702;52.982;6.658;2023-01-26T10:15:00;5.70;99.90
58865;DHT22;45702;52.982;6.658;2023-01-26T10:17:37;5.70;99.90
58865;DHT22;45702;52.982;6.658;2023-01-26T10:23:04;5.70;99.90
58865;DHT22;45702;52.982;6.658;2023-01-26T10:25:36;5.80;99.90
58865;DHT22;45702;52.982;6.658;2023-01-26T10:28:14;6.40;99.90
58865;DHT22;45702;52.982;6.658;2023-01-26T10:30:42;7.10;99.90
58865;DHT22;45702;52.982;6.658;2023-01-26T10:33:32;7.60;99.90
58865;DHT22;45702;52.982;6.658;2023-01-26T10:36:04;7.50;99.90
58865;DHT22;45702;52.982;6.658;2023-01-26T10:41:03;7.30;99.90
58865;DHT22;45702;52.982;6.658;2023-01-26T10:43:39;7.70;99.90
58865;DHT22;45702;52.982;6.658;2023-01-26T10:46:09;8.00;99.90
58865;DHT22;45702;52.982;6.658;2023-01-26T10:48:52;8.30;99.90
58865;DHT22;45702;52.982;6.658;2023-01-26T10:51:24;8.40;99.90
58865;DHT22;45702;52.982;6.658;2023-01-26T10:53:50;8.30;99.90
58865;DHT22;45702;52.982;6.658;2023-01-26T10:56:16;8.40;99.90
58865;DHT22;45702;52.982;6.658;2023-01-26T10:58:55;9.00;99.90
58865;DHT22;45702;52.982;6.658;2023-01-26T11:01:23;9.50;99.90
58865;DHT22;45702;52.982;6.658;2023-01-26T11:04:05;9.90;99.90
58865;DHT22;45702;52.982;6.658;2023-01-26T11:06:32;10.50;99.90
58865;DHT22;45702;52.982;6.658;2023-01-26T11:11:38;11.20;99.90
58865;DHT22;45702;52.982;6.658;2023-01-26T11:14:18;11.50;99.90
58865;DHT22;45702;52.982;6.658;2023-01-26T11:22:12;11.40;99.90
58865;DHT22;45702;52.982;6.658;2023-01-26T11:24:49;11.20;99.90
58865;DHT22;45702;52.982;6.658;2023-01-26T11:27:25;10.80;99.90
58865;DHT22;45702;52.982;6.658;2023-01-26T11:38:30;9.90;99.90
58865;DHT22;45702;52.982;6.658;2023-01-26T11:41:35;9.50;99.90
58865;DHT22;45702;52.982;6.658;2023-01-26T11:44:40;9.40;99.90
58865;DHT22;45702;52.982;6.658;2023-01-26T11:54:50;10.70;99.90
58865;DHT22;45702;52.982;6.658;2023-01-26T12:02:50;12.60;99.90
58865;DHT22;45702;52.982;6.658;2023-01-26T12:05:25;12.70;99.90
58865;DHT22;45702;52.982;6.658;2023-01-26T12:08:02;12.80;99.90
58865;DHT22;45702;52.982;6.658;2023-01-26T12:11:08;12.50;99.90
58865;DHT22;45702;52.982;6.658;2023-01-26T12:27:53;10.20;99.90
58865;DHT22;45702;52.982;6.658;2023-01-26T12:32:55;9.30;99.90
58865;DHT22;45702;52.982;6.658;2023-01-26T12:41:09;8.60;99.90
58865;DHT22;45702;52.982;6.658;2023-01-26T12:46:34;8.70;99.90
58865;DHT22;45702;52.982;6.658;2023-01-26T12:49:05;8.90;99.90
58865;DHT22;45702;52.982;6.658;2023-01-26T12:51:39;9.00;99.90
58865;DHT22;45702;52.982;6.658;2023-01-26T12:54:30;8.90;99.90
58865;DHT22;45702;52.982;6.658;2023-01-26T12:56:59;8.90;99.90
58865;DHT22;45702;52.982;6.658;2023-01-26T12:59:32;8.90;99.90
58865;DHT22;45702;52.982;6.658;2023-01-26T13:04:57;8.90;99.90
58865;DHT22;45702;52.982;6.658;2023-01-26T13:07:35;9.00;99.90
58865;DHT22;45702;52.982;6.658;2023-01-26T13:13:00;9.30;99.90
58865;DHT22;45702;52.982;6.658;2023-01-26T13:19:02;9.00;99.90
58865;DHT22;45702;52.982;6.658;2023-01-26T13:26:53;9.20;99.90
58865;DHT22;45702;52.982;6.658;2023-01-26T13:34:41;8.80;99.90
58865;DHT22;45702;52.982;6.658;2023-01-26T13:37:11;8.70;99.90
58865;DHT22;45702;52.982;6.658;2023-01-26T13:39:40;8.60;99.90
58865;DHT22;45702;52.982;6.658;2023-01-26T13:42:24;8.50;99.90
58865;DHT22;45702;52.982;6.658;2023-01-26T13:45:03;8.40;99.90
58865;DHT22;45702;52.982;6.658;2023-01-26T13:47:40;8.40;99.90
58865;DHT22;45702;52.982;6.658;2023-01-26T13:52:47;8.40;99.90
58865;DHT22;45702;52.982;6.658;2023-01-26T13:55:25;8.30;99.90
58865;DHT22;45702;52.982;6.658;2023-01-26T13:58:14;8.30;99.90
58865;DHT22;45702;52.982;6.658;2023-01-26T14:00:41;8.20;99.90
58865;DHT22;45702;52.982;6.658;2023-01-26T14:03:20;8.20;99.90
58865;DHT22;45702;52.982;6.658;2023-01-26T14:06:08;8.20;99.90
58865;DHT22;45702;52.982;6.658;2023-01-26T14:08:35;8.10;99.90
58865;DHT22;45702;52.982;6.658;2023-01-26T14:11:02;8.00;99.90
58865;DHT22;45702;52.982;6.658;2023-01-26T14:13:35;8.00;99.90
58865;DHT22;45702;52.982;6.658;2023-01-26T14:16:04;7.90;99.90
58865;DHT22;45702;52.982;6.658;2023-01-26T14:18:30;7.90;99.90
58865;DHT22;45702;52.982;6.658;2023-01-26T14:21:15;7.90;99.90
58865;DHT22;45702;52.982;6.658;2023-01-26T14:23:42;7.80;99.90
58865;DHT22;45702;52.982;6.658;2023-01-26T14:26:20;7.80;99.90
58865;DHT22;45702;52.982;6.658;2023-01-26T14:28:46;7.80;99.90
58865;DHT22;45702;52.982;6.658;2023-01-26T14:31:17;7.70;99.90
58865;DHT22;45702;52.982;6.658;2023-01-26T14:33:45;7.70;99.90
58865;DHT22;45702;52.982;6.658;2023-01-26T14:36:16;7.70;99.90
58865;DHT22;45702;52.982;6.658;2023-01-26T14:38:45;7.70;99.90
58865;DHT22;45702;52.982;6.658;2023-01-26T14:41:21;7.60;99.90
58865;DHT22;45702;52.982;6.658;2023-01-26T14:43:53;7.60;99.90
58865;DHT22;45702;52.982;6.658;2023-01-26T14:46:29;7.60;99.90
58865;DHT22;45702;52.982;6.658;2023-01-26T14:49:05;7.60;99.90
58865;DHT22;45702;52.982;6.658;2023-01-26T14:51:32;7.60;99.90
58865;DHT22;45702;52.982;6.658;2023-01-26T14:54:02;7.50;99.90
58865;DHT22;45702;52.982;6.658;2023-01-26T14:56:39;7.50;99.90
58865;DHT22;45702;52.982;6.658;2023-01-26T14:59:15;7.50;99.90
58865;DHT22;45702;52.982;6.658;2023-01-26T15:01:50;7.50;99.90
58865;DHT22;45702;52.982;6.658;2023-01-26T15:04:34;7.50;99.90
58865;DHT22;45702;52.982;6.658;2023-01-26T15:10:20;7.50;99.90
58865;DHT22;45702;52.982;6.658;2023-01-26T15:13:28;7.50;99.90
58865;DHT22;45702;52.982;6.658;2023-01-26T15:15:47;7.40;99.90
58865;DHT22;45702;52.982;6.658;2023-01-26T15:18:20;7.40;99.90
58865;DHT22;45702;52.982;6.658;2023-01-26T15:20:59;7.40;99.90
58865;DHT22;45702;52.982;6.658;2023-01-26T15:23:36;7.40;99.90
58865;DHT22;45702;52.982;6.658;2023-01-26T15:26:28;7.30;99.90
58865;DHT22;45702;52.982;6.658;2023-01-26T15:28:56;7.30;99.90
58865;DHT22;45702;52.982;6.658;2023-01-26T15:31:33;7.30;99.90
58865;DHT22;45702;52.982;6.658;2023-01-26T15:34:00;7.20;99.90
58865;DHT22;45702;52.982;6.658;2023-01-26T15:36:32;7.20;99.90
58865;DHT22;45702;52.982;6.658;2023-01-26T15:39:10;7.20;99.90
58865;DHT22;45702;52.982;6.658;2023-01-26T15:41:41;7.10;99.90
58865;DHT22;45702;52.982;6.658;2023-01-26T15:44:17;7.10;99.90
58865;DHT22;45702;52.982;6.658;2023-01-26T15:46:44;7.10;99.90
58865;DHT22;45702;52.982;6.658;2023-01-26T15:49:11;7.00;99.90
58865;DHT22;45702;52.982;6.658;2023-01-26T15:51:37;7.00;99.90
58865;DHT22;45702;52.982;6.658;2023-01-26T15:54:03;7.00;99.90
58865;DHT22;45702;52.982;6.658;2023-01-26T15:56:29;6.90;99.90
58865;DHT22;45702;52.982;6.658;2023-01-26T15:58:55;6.90;99.90
58865;DHT22;45702;52.982;6.658;2023-01-26T16:01:22;6.90;99.90
58865;DHT22;45702;52.982;6.658;2023-01-26T16:03:54;6.80;99.90
58865;DHT22;45702;52.982;6.658;2023-01-26T16:06:26;6.80;99.90
58865;DHT22;45702;52.982;6.658;2023-01-26T16:08:53;6.70;99.90
58865;DHT22;45702;52.982;6.658;2023-01-26T16:11:20;6.60;99.90
58865;DHT22;45702;52.982;6.658;2023-01-26T16:13:47;6.60;99.90
58865;DHT22;45702;52.982;6.658;2023-01-26T16:16:14;6.50;99.90
58865;DHT22;45702;52.982;6.658;2023-01-26T16:18:41;6.40;99.90
58865;DHT22;45702;52.982;6.658;2023-01-26T16:21:16;6.40;99.90
58865;DHT22;45702;52.982;6.658;2023-01-26T16:23:42;6.30;99.90
58865;DHT22;45702;52.982;6.658;2023-01-26T16:26:11;6.20;99.90
58865;DHT22;45702;52.982;6.658;2023-01-26T16:28:37;6.10;99.90
58865;DHT22;45702;52.982;6.658;2023-01-26T16:31:10;6.10;99.90
58865;DHT22;45702;52.982;6.658;2023-01-26T16:33:37;6.00;99.90
58865;DHT22;45702;52.982;6.658;2023-01-26T16:36:03;6.10;99.90
58865;DHT22;45702;52.982;6.658;2023-01-26T16:38:28;6.00;99.90
58865;DHT22;45702;52.982;6.658;2023-01-26T16:40:54;6.00;99.90
58865;DHT22;45702;52.982;6.658;2023-01-26T16:43:25;6.00;99.90
58865;DHT22;45702;52.982;6.658;2023-01-26T16:45:53;6.00;99.90
58865;DHT22;45702;52.982;6.658;2023-01-26T16:48:20;5.90;99.90
58865;DHT22;45702;52.982;6.658;2023-01-26T16:50:50;5.90;99.90
58865;DHT22;45702;52.982;6.658;2023-01-26T16:55:44;5.80;99.90
58865;DHT22;45702;52.982;6.658;2023-01-26T16:58:10;5.80;99.90
58865;DHT22;45702;52.982;6.658;2023-01-26T17:00:35;5.80;99.90
58865;DHT22;45702;52.982;6.658;2023-01-26T17:03:01;5.70;99.90
58865;DHT22;45702;52.982;6.658;2023-01-26T17:05:27;5.70;99.90
58865;DHT22;45702;52.982;6.658;2023-01-26T17:07:52;5.70;99.90
58865;DHT22;45702;52.982;6.658;2023-01-26T17:10:18;5.70;99.90
58865;DHT22;45702;52.982;6.658;2023-01-26T17:12:46;5.60;99.90
58865;DHT22;45702;52.982;6.658;2023-01-26T17:15:12;5.60;99.90
58865;DHT22;45702;52.982;6.658;2023-01-26T17:17:38;5.70;99.90
58865;DHT22;45702;52.982;6.658;2023-01-26T17:20:04;5.60;99.90
58865;DHT22;45702;52.982;6.658;2023-01-26T17:22:30;5.60;99.90
58865;DHT22;45702;52.982;6.658;2023-01-26T17:24:57;5.60;99.90
58865;DHT22;45702;52.982;6.658;2023-01-26T17:27:23;5.60;99.90
58865;DHT22;45702;52.982;6.658;2023-01-26T17:29:49;5.50;99.90
58865;DHT22;45702;52.982;6.658;2023-01-26T17:32:16;5.50;99.90
58865;DHT22;45702;52.982;6.658;2023-01-26T17:34:48;5.50;99.90
58865;DHT22;45702;52.982;6.658;2023-01-26T17:37:14;5.50;99.90
58865;DHT22;45702;52.982;6.658;2023-01-26T17:39:40;5.50;99.90
58865;DHT22;45702;52.982;6.658;2023-01-26T17:42:05;5.50;99.90
58865;DHT22;45702;52.982;6.658;2023-01-26T17:44:31;5.50;99.90
58865;DHT22;45702;52.982;6.658;2023-01-26T17:46:57;5.40;99.90
58865;DHT22;45702;52.982;6.658;2023-01-26T17:49:23;5.40;99.90